Terminal Aerodrome Forecast
Issued by NWS

Home | Current Version | Previous Version | Text Only | Print | Product List | Glossary On
Versions: 1 2 3 4 5 6 7 8 9 10 11 12 13 14 15 16 17 18 19 20 21 22 23 24 25 26 27 28
787
FTUS45 KREV 192322
TAFCXP
TAF
KCXP 192322Z 2000/2024 34011G18KT P6SM VCSH SCT035 BKN050
     FM200200 36006KT P6SM BKN060
     FM201100 VRB03KT P6SM SCT060 BKN090
     FM201700 VRB05KT P6SM SCT100=

USA.gov is the U.S. government's official web portal to all federal, state and local government web resources and services.